Time;durP1;ratioP1;P1;durP2;ratioP2;P2;SDS_P1;SDS_P2;PMS_P1;PMS_P2;Temp;Humidity;BMP_temperature;BMP_pressure;BME280_temperature;BME280_humidity;BME280_pressure;Samples;Min_cycle;Max_cycle;Signal;HPM_P1;HPM_P2
2021/08/18 00:01:20;;;;;;;3.78;2.08;;;16.00;95.70;;;;;;5073511;28;20024;-82
2021/08/18 00:03:46;;;;;;;4.00;1.60;;;16.00;95.70;;;;;;5072965;28;20108;-83
2021/08/18 00:06:12;;;;;;;2.58;1.50;;;16.00;95.70;;;;;;5073075;28;20508;-84
2021/08/18 00:08:40;;;;;;;3.05;1.40;;;16.00;95.70;;;;;;5073189;28;20444;-83
2021/08/18 00:11:07;;;;;;;1.55;1.15;;;16.00;95.70;;;;;;5073308;28;20494;-83
2021/08/18 00:13:32;;;;;;;3.75;2.15;;;16.00;95.70;;;;;;5073166;28;20055;-82
2021/08/18 00:15:58;;;;;;;3.20;1.73;;;16.00;95.70;;;;;;5073188;28;20485;-83
2021/08/18 00:18:23;;;;;;;3.72;1.80;;;16.10;95.70;;;;;;5072648;28;20116;-81
2021/08/18 00:20:49;;;;;;;3.45;2.00;;;16.10;95.70;;;;;;5073140;28;20024;-82
2021/08/18 00:23:14;;;;;;;5.35;2.10;;;16.00;95.60;;;;;;5072888;28;20025;-82
2021/08/18 00:25:40;;;;;;;3.08;2.00;;;16.00;95.70;;;;;;5072974;28;20031;-81
2021/08/18 00:28:06;;;;;;;3.40;1.65;;;16.00;95.70;;;;;;5073315;28;20416;-82
2021/08/18 00:30:32;;;;;;;4.40;1.85;;;16.00;95.70;;;;;;5072926;28;20028;-81
2021/08/18 00:32:57;;;;;;;3.38;2.08;;;16.10;95.70;;;;;;5072608;28;20514;-81
2021/08/18 00:35:23;;;;;;;2.95;2.05;;;16.10;95.60;;;;;;5073008;28;20087;-82
2021/08/18 00:37:48;;;;;;;3.22;2.03;;;16.10;95.60;;;;;;5072971;28;20118;-83
2021/08/18 00:40:15;;;;;;;2.95;1.98;;;16.10;95.60;;;;;;5073073;28;20020;-81
2021/08/18 00:42:44;;;;;;;2.95;1.60;;;16.10;95.60;;;;;;5073145;28;20031;-82
2021/08/18 00:45:12;;;;;;;3.88;2.13;;;16.10;95.60;;;;;;5076770;28;20021;-81
2021/08/18 00:47:45;;;;;;;4.93;2.50;;;16.10;95.60;;;;;;5076321;28;20192;-82
2021/08/18 00:50:13;;;;;;;4.20;2.40;;;16.10;95.50;;;;;;5076784;28;20430;-83
2021/08/18 00:52:39;;;;;;;3.90;1.85;;;16.10;95.50;;;;;;5076635;28;20020;-82
2021/08/18 00:55:08;;;;;;;3.78;1.80;;;16.10;95.50;;;;;;5076622;28;20082;-81
2021/08/18 00:57:35;;;;;;;4.10;1.83;;;16.10;95.60;;;;;;5076511;28;20031;-81
2021/08/18 01:00:01;;;;;;;2.42;1.25;;;16.10;95.60;;;;;;5058470;28;20025;-82
2021/08/18 01:02:26;;;;;;;3.90;1.70;;;16.10;95.60;;;;;;5075976;28;20362;-83
2021/08/18 01:04:52;;;;;;;3.50;2.00;;;16.10;95.60;;;;;;5076492;28;20124;-82
2021/08/18 01:07:17;;;;;;;3.25;1.65;;;16.10;95.50;;;;;;5076590;28;20032;-82
2021/08/18 01:09:43;;;;;;;4.13;2.03;;;16.10;95.50;;;;;;5076546;28;20025;-81
2021/08/18 01:12:12;;;;;;;3.78;1.83;;;16.00;95.50;;;;;;5058234;28;20028;-81
2021/08/18 01:14:37;;;;;;;3.45;1.70;;;16.10;95.60;;;;;;5076399;28;20020;-82
2021/08/18 01:17:03;;;;;;;3.88;1.92;;;16.10;95.50;;;;;;5075846;28;20023;-81
2021/08/18 01:19:29;;;;;;;4.47;2.03;;;16.10;95.50;;;;;;5076257;28;20504;-81
2021/08/18 01:21:54;;;;;;;2.67;1.30;;;16.10;95.50;;;;;;5076246;28;20021;-82
2021/08/18 01:24:21;;;;;;;3.63;1.55;;;16.00;95.50;;;;;;5075949;28;20080;-81
2021/08/18 01:26:47;;;;;;;3.15;1.45;;;16.10;95.50;;;;;;5075975;28;20075;-82
2021/08/18 01:29:13;;;;;;;4.40;1.95;;;16.10;95.50;;;;;;5076074;28;20020;-81
2021/08/18 01:31:41;;;;;;;2.90;1.52;;;16.10;95.40;;;;;;5075681;28;20394;-82
2021/08/18 01:34:06;;;;;;;3.92;1.90;;;16.00;95.40;;;;;;5076027;28;20023;-82
2021/08/18 01:36:33;;;;;;;2.13;1.30;;;16.00;95.50;;;;;;5075818;28;20037;-80
2021/08/18 01:39:07;;;;;;;2.85;1.30;;;16.10;95.50;;;;;;5075891;28;20077;-80
2021/08/18 01:41:33;;;;;;;4.40;1.60;;;16.10;95.50;;;;;;5075879;28;20082;-81
2021/08/18 01:43:59;;;;;;;4.22;1.98;;;16.00;95.50;;;;;;5075652;28;20032;-81
2021/08/18 01:46:24;;;;;;;3.20;1.90;;;16.00;95.50;;;;;;5075186;28;20032;-82
2021/08/18 01:48:52;;;;;;;3.13;1.88;;;16.00;95.50;;;;;;5075622;28;20019;-82
2021/08/18 01:51:17;;;;;;;7.63;2.28;;;16.00;95.50;;;;;;5075612;28;20473;-81
2021/08/18 01:53:45;;;;;;;5.00;2.42;;;16.00;95.60;;;;;;5075228;28;20021;-81
2021/08/18 01:56:12;;;;;;;3.85;1.80;;;16.00;95.50;;;;;;5075325;28;20496;-83
2021/08/18 01:58:39;;;;;;;2.63;1.27;;;16.00;95.60;;;;;;5075485;28;20024;-81
2021/08/18 02:01:07;;;;;;;3.78;1.50;;;16.10;95.60;;;;;;5074892;28;20027;-80
2021/08/18 02:03:33;;;;;;;2.65;1.90;;;16.10;95.50;;;;;;5075336;28;20073;-81
2021/08/18 02:05:58;;;;;;;2.78;1.50;;;16.10;95.40;;;;;;5075394;28;20409;-81
2021/08/18 02:08:24;;;;;;;3.53;1.90;;;16.10;95.40;;;;;;5075227;28;20416;-81
2021/08/18 02:10:49;;;;;;;3.17;2.03;;;16.10;95.40;;;;;;5075323;28;20473;-80
2021/08/18 02:13:15;;;;;;;2.80;1.63;;;16.10;95.40;;;;;;5075709;28;20025;-81
2021/08/18 02:15:41;;;;;;;5.10;2.20;;;16.10;95.50;;;;;;5056676;28;20491;-81
2021/08/18 02:18:08;;;;;;;4.63;2.50;;;16.00;95.40;;;;;;5057146;28;20373;-82
2021/08/18 02:20:36;;;;;;;4.43;1.95;;;16.00;95.70;;;;;;5075036;28;20024;-81
2021/08/18 02:23:03;;;;;;;3.38;1.83;;;16.00;95.50;;;;;;5075040;28;20108;-80
2021/08/18 02:25:28;;;;;;;3.28;1.35;;;16.00;95.50;;;;;;5074402;28;20131;-80
2021/08/18 02:27:54;;;;;;;3.90;1.77;;;16.00;95.50;;;;;;5074953;28;20120;-80
2021/08/18 02:30:23;;;;;;;3.55;1.83;;;16.00;95.40;;;;;;5074482;28;20537;-80
2021/08/18 02:32:49;;;;;;;2.67;1.40;;;16.00;95.40;;;;;;5074899;28;20021;-81
2021/08/18 02:35:15;;;;;;;2.40;1.38;;;15.90;95.50;;;;;;5074700;28;20028;-80
2021/08/18 02:37:41;;;;;;;2.60;1.50;;;16.00;95.50;;;;;;5074614;28;20016;-81
2021/08/18 02:40:09;;;;;;;2.47;1.48;;;16.00;95.50;;;;;;5074587;28;20033;-81
2021/08/18 02:42:35;;;;;;;1.90;1.20;;;15.90;95.50;;;;;;5074622;28;20024;-81
2021/08/18 02:45:01;;;;;;;1.65;1.08;;;15.90;95.50;;;;;;5074164;28;20381;-81
2021/08/18 02:47:26;;;;;;;2.22;1.08;;;15.90;95.50;;;;;;5074243;28;20039;-81
2021/08/18 02:49:53;;;;;;;1.80;1.20;;;15.90;95.50;;;;;;5074446;28;20032;-81
2021/08/18 02:52:18;;;;;;;1.73;1.42;;;15.90;95.40;;;;;;5074414;28;20027;-81
2021/08/18 02:54:44;;;;;;;3.28;1.40;;;15.90;95.40;;;;;;5074392;28;20390;-80
2021/08/18 02:57:10;;;;;;;2.53;1.10;;;15.90;95.40;;;;;;5074343;28;20441;-81
2021/08/18 02:59:35;;;;;;;2.00;1.23;;;15.90;95.40;;;;;;5073524;28;20017;-82
2021/08/18 03:02:01;;;;;;;2.33;1.42;;;15.90;95.40;;;;;;5074323;28;20032;-82
2021/08/18 03:04:26;;;;;;;2.72;1.50;;;15.90;95.40;;;;;;5074390;28;20024;-81
2021/08/18 03:06:54;;;;;;;3.20;1.42;;;15.90;95.40;;;;;;5073323;28;20036;-81
2021/08/18 03:09:20;;;;;;;2.88;1.75;;;15.90;95.40;;;;;;5074011;28;20016;-82
2021/08/18 03:11:46;;;;;;;2.20;1.38;;;15.90;95.40;;;;;;5074021;28;20025;-81
2021/08/18 03:14:11;;;;;;;2.97;1.42;;;15.90;95.40;;;;;;5073688;28;20023;-82
2021/08/18 03:16:37;;;;;;;2.80;1.30;;;15.90;95.40;;;;;;5073927;28;20074;-81
2021/08/18 03:19:02;;;;;;;2.17;1.17;;;15.90;95.40;;;;;;5073933;28;20141;-81
2021/08/18 03:21:28;;;;;;;1.77;1.00;;;15.90;95.30;;;;;;5073929;28;20024;-81
2021/08/18 03:23:53;;;;;;;2.60;1.33;;;15.90;95.30;;;;;;5073481;28;20072;-81
2021/08/18 03:26:19;;;;;;;1.80;1.17;;;15.90;95.30;;;;;;5073473;28;20090;-83
2021/08/18 03:28:44;;;;;;;2.20;1.13;;;15.80;95.30;;;;;;5073669;28;20078;-80
2021/08/18 03:31:10;;;;;;;2.58;1.08;;;15.80;95.40;;;;;;5073811;28;20384;-81
2021/08/18 03:33:35;;;;;;;1.50;0.80;;;15.80;95.30;;;;;;5073644;28;20074;-81
2021/08/18 03:36:01;;;;;;;2.20;1.20;;;15.80;95.30;;;;;;5055670;28;20150;-80
2021/08/18 03:38:26;;;;;;;2.50;1.20;;;15.90;95.30;;;;;;5073417;28;20049;-79
2021/08/18 03:40:54;;;;;;;2.05;1.25;;;15.90;95.30;;;;;;5073120;28;20108;-83
2021/08/18 03:43:20;;;;;;;1.98;1.05;;;15.80;95.30;;;;;;5073551;28;20120;-81
2021/08/18 03:45:46;;;;;;;1.83;1.00;;;15.80;95.30;;;;;;5073575;28;20560;-81
2021/08/18 03:48:11;;;;;;;1.27;1.00;;;15.80;95.40;;;;;;5073479;28;20142;-80
2021/08/18 03:50:37;;;;;;;1.52;0.88;;;15.80;95.40;;;;;;5073499;28;20058;-80
2021/08/18 03:53:03;;;;;;;2.55;1.30;;;15.80;95.40;;;;;;5073434;28;20025;-79
2021/08/18 03:55:28;;;;;;;2.15;1.10;;;15.80;95.30;;;;;;5072977;28;20035;-80
2021/08/18 03:57:54;;;;;;;1.10;1.00;;;15.80;95.20;;;;;;5073334;28;20039;-80
2021/08/18 04:00:20;;;;;;;1.27;0.95;;;15.80;95.20;;;;;;5073472;28;20081;-81
2021/08/18 04:02:45;;;;;;;1.60;0.95;;;15.80;95.30;;;;;;5055395;28;20024;-80
2021/08/18 04:05:11;;;;;;;2.58;1.20;;;15.80;95.30;;;;;;5073209;28;20016;-81
2021/08/18 04:07:37;;;;;;;3.10;1.50;;;15.70;95.30;;;;;;5073164;28;20032;-81
2021/08/18 04:10:04;;;;;;;2.58;1.65;;;15.70;95.40;;;;;;5072787;28;20086;-79
2021/08/18 04:12:30;;;;;;;2.30;1.35;;;15.70;95.40;;;;;;5073185;28;20044;-80
2021/08/18 04:14:56;;;;;;;3.00;1.38;;;15.70;95.40;;;;;;5073089;28;20067;-80
2021/08/18 04:17:22;;;;;;;3.17;1.35;;;15.70;95.40;;;;;;5073104;28;20142;-80
2021/08/18 04:19:49;;;;;;;3.00;1.20;;;15.60;95.40;;;;;;5073039;28;20032;-80
2021/08/18 04:22:14;;;;;;;2.08;1.10;;;15.60;95.40;;;;;;5073093;28;20016;-80
2021/08/18 04:24:40;;;;;;;1.55;1.33;;;15.70;95.40;;;;;;5072427;28;20098;-80
2021/08/18 04:27:06;;;;;;;2.15;1.20;;;15.70;95.30;;;;;;5072979;28;20078;-80
2021/08/18 04:29:31;;;;;;;1.80;1.33;;;15.70;95.30;;;;;;5073014;28;20081;-80
2021/08/18 04:31:58;;;;;;;3.08;1.25;;;15.70;95.30;;;;;;5072916;28;20481;-81
2021/08/18 04:34:24;;;;;;;2.03;1.15;;;15.70;95.40;;;;;;5072953;28;20047;-80
2021/08/18 04:36:50;;;;;;;1.92;1.10;;;15.70;95.40;;;;;;5073016;28;20024;-81
2021/08/18 04:39:15;;;;;;;3.17;1.25;;;15.70;95.40;;;;;;5072428;28;20377;-81
2021/08/18 04:41:41;;;;;;;2.15;1.40;;;15.70;95.40;;;;;;5072998;28;20107;-80
2021/08/18 04:44:06;;;;;;;2.13;1.20;;;15.70;95.40;;;;;;5072924;28;20368;-81
2021/08/18 04:46:31;;;;;;;2.55;1.40;;;15.80;95.30;;;;;;5054941;28;20036;-80
2021/08/18 04:48:57;;;;;;;2.05;1.17;;;15.80;95.30;;;;;;5072871;28;20025;-81
2021/08/18 04:51:22;;;;;;;1.67;1.20;;;15.80;95.30;;;;;;5072924;28;20086;-80
2021/08/18 04:53:49;;;;;;;2.65;1.23;;;15.80;95.30;;;;;;5072181;28;20099;-80
2021/08/18 04:56:15;;;;;;;2.85;1.70;;;15.80;95.30;;;;;;5054754;28;20384;-80
2021/08/18 04:58:40;;;;;;;3.38;1.77;;;15.80;95.30;;;;;;5072829;28;20021;-81
2021/08/18 05:01:06;;;;;;;2.90;1.55;;;15.80;95.30;;;;;;5072794;28;20496;-83
2021/08/18 05:03:31;;;;;;;2.45;1.48;;;15.90;95.30;;;;;;5072725;28;20113;-80
2021/08/18 05:05:57;;;;;;;3.00;1.50;;;15.90;95.30;;;;;;5072507;28;20029;-79
2021/08/18 05:08:22;;;;;;;3.63;1.90;;;15.90;95.30;;;;;;5072279;28;20504;-79
2021/08/18 05:10:48;;;;;;;2.33;1.38;;;15.90;95.30;;;;;;5072563;28;20096;-79
2021/08/18 05:13:13;;;;;;;2.92;1.70;;;15.90;95.20;;;;;;5072635;28;20021;-80
2021/08/18 05:15:40;;;;;;;2.47;1.25;;;16.00;95.30;;;;;;5072733;28;20032;-81
2021/08/18 05:18:06;;;;;;;1.50;1.17;;;16.00;95.20;;;;;;5072342;28;20074;-80
2021/08/18 05:20:31;;;;;;;2.10;1.25;;;16.00;95.20;;;;;;5072515;28;20021;-81
2021/08/18 05:22:57;;;;;;;1.65;1.10;;;16.10;95.20;;;;;;5072117;28;20159;-81
2021/08/18 05:25:22;;;;;;;2.45;1.50;;;16.10;95.20;;;;;;5072331;28;20166;-80
2021/08/18 05:27:48;;;;;;;1.92;1.27;;;16.10;95.10;;;;;;5072544;28;20477;-81
2021/08/18 05:30:15;;;;;;;2.97;1.77;;;16.20;95.10;;;;;;5075098;28;20498;-80
2021/08/18 05:32:41;;;;;;;1.90;0.90;;;16.20;95.10;;;;;;5058103;28;20041;-81
2021/08/18 05:35:09;;;;;;;2.75;1.48;;;16.20;95.10;;;;;;5075844;28;20102;-81
2021/08/18 05:37:38;;;;;;;2.45;1.33;;;16.20;95.10;;;;;;5075378;28;20021;-80
2021/08/18 05:40:04;;;;;;;2.92;1.35;;;16.20;95.10;;;;;;5058011;28;20464;-80
2021/08/18 05:42:30;;;;;;;2.90;1.40;;;16.20;95.10;;;;;;5075741;28;20107;-80
2021/08/18 05:44:55;;;;;;;2.60;1.20;;;16.20;95.10;;;;;;5075867;28;20056;-80
2021/08/18 05:47:21;;;;;;;2.80;1.60;;;16.20;95.10;;;;;;5075652;28;20032;-80
2021/08/18 05:49:48;;;;;;;3.40;1.63;;;16.20;95.10;;;;;;5075606;28;20096;-80
2021/08/18 05:52:14;;;;;;;2.53;1.40;;;16.20;95.10;;;;;;5075053;28;20350;-80
2021/08/18 05:54:40;;;;;;;3.58;1.58;;;16.20;95.10;;;;;;5057562;28;20073;-79
2021/08/18 05:57:06;;;;;;;1.98;1.23;;;16.30;95.10;;;;;;5075581;28;20032;-80
2021/08/18 05:59:31;;;;;;;3.78;1.95;;;16.30;95.00;;;;;;5075549;28;20013;-80
2021/08/18 06:01:56;;;;;;;3.25;1.70;;;16.30;95.00;;;;;;5075560;28;20481;-78
2021/08/18 06:04:22;;;;;;;3.08;1.60;;;16.30;95.10;;;;;;5075342;28;20029;-79
2021/08/18 06:06:47;;;;;;;2.35;1.27;;;16.30;95.00;;;;;;5075048;28;20028;-81
2021/08/18 06:09:13;;;;;;;1.30;0.95;;;16.30;95.00;;;;;;5075371;28;20507;-80
2021/08/18 06:11:40;;;;;;;1.20;1.00;;;16.30;95.00;;;;;;5075311;28;20359;-79
2021/08/18 06:14:07;;;;;;;1.83;0.90;;;16.40;95.00;;;;;;5075183;28;20355;-79
2021/08/18 06:16:33;;;;;;;1.42;1.02;;;16.50;95.10;;;;;;5075252;28;20108;-79
2021/08/18 06:18:59;;;;;;;1.65;1.20;;;16.60;95.00;;;;;;5075052;28;20096;-80
2021/08/18 06:21:25;;;;;;;3.05;1.40;;;16.70;94.90;;;;;;5074574;28;20020;-78
2021/08/18 06:23:53;;;;;;;2.53;1.48;;;16.60;94.90;;;;;;5074755;28;20053;-79
2021/08/18 06:26:18;;;;;;;1.73;0.95;;;16.60;94.90;;;;;;5075107;28;20473;-80
2021/08/18 06:28:44;;;;;;;1.38;0.80;;;16.60;94.90;;;;;;5074906;28;20050;-80
2021/08/18 06:31:09;;;;;;;2.58;1.40;;;16.70;94.90;;;;;;5074737;28;20377;-79
2021/08/18 06:33:37;;;;;;;1.60;1.00;;;16.70;94.90;;;;;;5074751;28;20525;-78
2021/08/18 06:36:03;;;;;;;2.33;1.17;;;16.80;94.80;;;;;;5074269;28;20043;-79
2021/08/18 06:38:30;;;;;;;1.40;0.82;;;16.80;94.80;;;;;;5074661;28;20419;-79
2021/08/18 06:40:55;;;;;;;1.05;0.90;;;16.90;94.80;;;;;;5073712;28;20485;-79
2021/08/18 06:43:21;;;;;;;0.73;0.70;;;16.90;94.80;;;;;;5074682;28;20025;-79
2021/08/18 06:45:46;;;;;;;1.75;0.80;;;17.00;94.80;;;;;;5074504;28;20032;-79
2021/08/18 06:48:12;;;;;;;1.17;0.80;;;17.00;94.70;;;;;;5074637;28;20056;-78
2021/08/18 06:50:37;;;;;;;1.63;0.90;;;17.10;94.80;;;;;;5074164;28;20029;-79
2021/08/18 06:53:03;;;;;;;1.35;1.00;;;17.10;94.70;;;;;;5074576;28;20021;-78
2021/08/18 06:55:30;;;;;;;1.58;0.90;;;17.10;94.70;;;;;;5074472;28;20032;-79
2021/08/18 06:57:55;;;;;;;1.25;0.68;;;17.20;94.60;;;;;;5074134;28;20072;-79
2021/08/18 07:00:21;;;;;;;1.48;0.80;;;17.10;94.70;;;;;;5074287;28;20032;-79
2021/08/18 07:02:49;;;;;;;0.90;0.70;;;17.10;94.70;;;;;;5074209;28;20020;-80
2021/08/18 07:05:15;;;;;;;1.10;0.65;;;17.20;94.70;;;;;;5073771;28;20024;-79
2021/08/18 07:07:41;;;;;;;1.75;0.80;;;17.20;94.90;;;;;;5074002;28;20028;-79
2021/08/18 07:10:07;;;;;;;2.40;1.00;;;17.30;94.60;;;;;;5074012;28;20096;-80
2021/08/18 07:12:33;;;;;;;1.75;1.10;;;17.20;94.50;;;;;;5074034;28;20052;-79
2021/08/18 07:14:58;;;;;;;1.55;1.02;;;17.20;94.60;;;;;;5074079;28;20028;-79
2021/08/18 07:17:24;;;;;;;2.13;1.20;;;17.20;94.50;;;;;;5073967;28;20028;-79
2021/08/18 07:19:49;;;;;;;1.10;0.80;;;17.20;94.60;;;;;;5073501;28;20024;-78
2021/08/18 07:22:15;;;;;;;1.98;1.10;;;17.20;94.60;;;;;;5073901;28;20016;-79
2021/08/18 07:24:40;;;;;;;2.13;1.30;;;17.20;94.60;;;;;;5055653;28;20036;-79
2021/08/18 07:27:06;;;;;;;1.02;0.93;;;17.20;94.50;;;;;;5073904;28;20496;-79
2021/08/18 07:29:31;;;;;;;1.30;1.10;;;17.20;94.50;;;;;;5073710;28;20020;-81
2021/08/18 07:31:57;;;;;;;1.92;1.40;;;17.20;94.60;;;;;;5073763;28;20078;-80
2021/08/18 07:34:22;;;;;;;2.50;1.20;;;17.10;94.50;;;;;;5073144;28;20035;-79
2021/08/18 07:36:48;;;;;;;1.75;1.10;;;17.00;94.60;;;;;;5073752;28;20523;-79
2021/08/18 07:39:13;;;;;;;1.92;1.23;;;17.00;94.60;;;;;;5073802;28;20032;-79
2021/08/18 07:41:39;;;;;;;1.17;1.00;;;17.10;94.60;;;;;;5073503;28;20107;-78
2021/08/18 07:44:05;;;;;;;1.23;0.90;;;17.10;94.60;;;;;;5055648;28;20107;-78
2021/08/18 07:46:31;;;;;;;2.00;1.13;;;17.20;94.60;;;;;;5073357;28;20036;-79
2021/08/18 07:48:56;;;;;;;1.48;1.05;;;17.20;94.60;;;;;;5072807;28;20025;-79
2021/08/18 07:51:22;;;;;;;1.58;0.70;;;17.30;94.60;;;;;;5073237;28;20071;-79
2021/08/18 07:53:47;;;;;;;1.38;0.90;;;17.30;94.50;;;;;;5073419;28;20385;-79
2021/08/18 07:56:13;;;;;;;1.20;1.10;;;17.30;94.50;;;;;;5073408;28;20362;-79
2021/08/18 07:58:38;;;;;;;2.70;1.15;;;17.30;94.50;;;;;;5073248;28;20100;-76
2021/08/18 08:01:07;;;;;;;1.00;0.93;;;17.40;94.60;;;;;;5055360;28;20115;-78
2021/08/18 08:03:32;;;;;;;1.15;0.90;;;17.40;94.50;;;;;;5072821;28;20096;-79
2021/08/18 08:05:58;;;;;;;0.82;0.80;;;17.40;94.50;;;;;;5073250;28;20124;-78
2021/08/18 08:08:24;;;;;;;1.65;1.00;;;17.50;94.50;;;;;;5073195;28;20030;-78
2021/08/18 08:10:49;;;;;;;2.00;1.20;;;17.50;94.40;;;;;;5073153;28;20538;-78
2021/08/18 08:13:15;;;;;;;1.80;1.00;;;17.60;94.40;;;;;;5073271;28;20025;-78
2021/08/18 08:15:40;;;;;;;1.88;1.08;;;17.60;94.50;;;;;;5073134;28;20032;-78
2021/08/18 08:18:06;;;;;;;1.40;1.00;;;17.60;94.50;;;;;;5072866;28;20043;-79
2021/08/18 08:20:32;;;;;;;1.45;1.00;;;17.70;94.50;;;;;;5055186;28;20068;-79
2021/08/18 08:22:59;;;;;;;3.30;1.50;;;17.80;94.50;;;;;;5073057;28;20020;-78
2021/08/18 08:25:25;;;;;;;1.52;1.05;;;17.90;94.40;;;;;;5072778;28;20507;-78
2021/08/18 08:27:50;;;;;;;1.05;0.80;;;17.90;94.30;;;;;;5071725;28;20058;-78
2021/08/18 08:30:16;;;;;;;0.90;0.80;;;18.00;94.40;;;;;;5072966;28;20020;-79
2021/08/18 08:32:42;;;;;;;1.65;1.02;;;18.00;94.30;;;;;;5072467;28;20373;-79
2021/08/18 08:35:09;;;;;;;0.77;0.73;;;18.00;94.30;;;;;;5072974;28;20096;-79
2021/08/18 08:37:35;;;;;;;1.38;1.15;;;18.10;94.30;;;;;;5072858;28;20108;-79
2021/08/18 08:40:00;;;;;;;1.80;1.17;;;18.30;94.30;;;;;;5054205;28;20128;-78
2021/08/18 08:42:27;;;;;;;2.65;2.00;;;18.40;94.30;;;;;;5072938;28;20078;-79
2021/08/18 08:44:53;;;;;;;2.33;1.20;;;18.50;94.20;;;;;;5072845;28;20025;-79
2021/08/18 08:47:21;;;;;;;2.83;1.58;;;18.70;94.20;;;;;;5072403;28;20063;-78
2021/08/18 08:49:47;;;;;;;1.52;1.35;;;18.70;94.10;;;;;;5072706;28;20017;-79
2021/08/18 08:52:13;;;;;;;2.47;1.40;;;18.80;94.10;;;;;;5072947;28;20028;-79
2021/08/18 08:54:42;;;;;;;2.03;1.50;;;18.90;94.10;;;;;;5072793;28;20174;-79
2021/08/18 08:57:08;;;;;;;1.23;1.10;;;19.00;94.20;;;;;;5072796;28;20473;-80
2021/08/18 08:59:33;;;;;;;2.20;1.42;;;19.00;94.10;;;;;;5054783;28;20069;-79
2021/08/18 09:02:06;;;;;;;2.15;1.70;;;19.00;94.20;;;;;;5072180;28;20100;-79
2021/08/18 09:04:41;;;;;;;3.13;1.83;;;19.10;94.10;;;;;;5074390;28;20358;-79
2021/08/18 09:07:07;;;;;;;4.28;2.97;;;19.20;94.10;;;;;;5076470;28;20032;-78
2021/08/18 09:09:34;;;;;;;3.00;1.95;;;19.20;94.00;;;;;;5076519;28;20066;-80
2021/08/18 09:12:11;;;;;;;3.83;2.30;;;19.20;94.00;;;;;;5076226;28;20044;-79
2021/08/18 09:14:37;;;;;;;2.85;2.22;;;19.20;94.00;;;;;;5075796;28;20070;-79
2021/08/18 09:17:25;;;;;;;4.03;2.75;;;19.30;94.10;;;;;;5076290;28;20024;-78
2021/08/18 09:19:58;;;;;;;3.72;2.40;;;19.30;93.90;;;;;;5076081;28;20032;-78
2021/08/18 09:22:24;;;;;;;4.00;2.30;;;19.20;94.00;;;;;;5076216;28;20111;-78
2021/08/18 09:25:06;;;;;;;3.55;2.17;;;19.10;94.10;;;;;;5075943;28;20051;-80
2021/08/18 09:27:32;;;;;;;3.72;2.45;;;19.10;94.10;;;;;;5076138;28;20032;-78
2021/08/18 09:29:58;;;;;;;3.95;2.25;;;19.20;94.20;;;;;;5075643;28;20052;-79
2021/08/18 09:32:32;;;;;;;3.00;2.28;;;19.30;94.20;;;;;;5075994;28;20109;-79
2021/08/18 09:35:11;;;;;;;3.65;2.22;;;19.40;94.20;;;;;;5075933;28;20054;-78
2021/08/18 09:37:38;;;;;;;;;;;19.50;94.20;;;;;;5076292;28;20028;-78
2021/08/18 09:40:35;;;;;;;1.65;1.50;;;19.60;94.20;;;;;;5075927;28;19904;-78
2021/08/18 09:43:25;;;;;;;2.75;1.85;;;19.70;94.10;;;;;;5063590;28;20040;-79
2021/08/18 09:46:03;;;;;;;2.75;1.63;;;19.70;94.00;;;;;;5075723;28;20020;-79
2021/08/18 09:48:33;;;;;;;3.05;1.65;;;19.70;94.00;;;;;;5075770;28;20107;-80
2021/08/18 09:50:58;;;;;;;2.50;1.77;;;19.80;94.00;;;;;;5075693;28;20031;-79
2021/08/18 09:53:27;;;;;;;2.92;1.90;;;19.90;94.20;;;;;;5075485;28;20024;-79
2021/08/18 09:55:56;;;;;;;2.78;1.60;;;19.90;94.00;;;;;;5075610;28;20021;-80
2021/08/18 09:58:30;;;;;;;3.22;2.20;;;20.10;94.00;;;;;;5075084;28;20191;-79
2021/08/18 10:00:59;;;;;;;3.55;2.08;;;20.10;93.80;;;;;;5075373;28;20384;-79
2021/08/18 10:03:26;;;;;;;3.05;2.45;;;20.10;93.80;;;;;;5075558;28;20017;-79
2021/08/18 10:05:53;;;;;;;3.38;2.20;;;20.10;93.90;;;;;;5075240;28;20359;-79
2021/08/18 10:08:20;;;;;;;4.32;2.35;;;20.00;93.90;;;;;;5075198;28;20066;-79
2021/08/18 10:10:46;;;;;;;2.70;1.90;;;20.10;93.90;;;;;;5057581;28;20048;-81
2021/08/18 10:13:12;;;;;;;4.47;3.08;;;20.10;93.90;;;;;;5074706;28;20462;-80
2021/08/18 10:15:38;;;;;;;7.30;4.32;;;20.10;94.00;;;;;;5074913;28;20082;-80
2021/08/18 10:18:05;;;;;;;4.35;2.80;;;20.10;93.90;;;;;;5075026;28;20029;-79
2021/08/18 10:20:32;;;;;;;4.15;2.72;;;20.20;93.90;;;;;;5075163;28;20025;-81
2021/08/18 10:23:03;;;;;;;5.68;3.20;;;20.20;93.80;;;;;;5075153;28;20078;-80
2021/08/18 10:25:48;;;;;;;4.82;3.13;;;20.20;93.70;;;;;;5074731;28;20045;-81
2021/08/18 10:28:16;;;;;;;5.50;3.28;;;20.10;93.70;;;;;;5056547;28;20033;-81
2021/08/18 10:30:46;;;;;;;5.38;3.72;;;19.90;93.80;;;;;;5074794;28;20024;-79
2021/08/18 10:33:32;;;;;;;6.13;3.60;;;19.70;93.90;;;;;;5074888;28;20056;-79
2021/08/18 10:35:57;;;;;;;5.53;3.28;;;19.60;93.90;;;;;;5074624;28;20396;-81
2021/08/18 10:38:29;;;;;;;5.97;3.70;;;19.40;94.00;;;;;;5075162;28;20070;-79
2021/08/18 10:40:55;;;;;;;4.35;2.97;;;19.30;94.10;;;;;;5074813;28;20032;-82
2021/08/18 10:43:56;;;;;;;5.20;3.20;;;19.30;94.10;;;;;;5074191;28;20100;-82
2021/08/18 10:46:22;;;;;;;6.65;3.13;;;19.40;94.10;;;;;;5074619;28;20469;-82
2021/08/18 10:48:54;;;;;;;5.00;3.45;;;19.40;94.10;;;;;;5074731;28;20056;-81
2021/08/18 10:51:38;;;;;;;4.75;3.05;;;19.50;94.10;;;;;;5056544;28;20479;-80
2021/08/18 10:54:39;;;;;;;4.82;2.58;;;19.50;94.10;;;;;;5074368;28;20028;-80
2021/08/18 10:57:47;;;;;;;4.55;2.53;;;19.60;94.10;;;;;;5041650;28;20032;-80
2021/08/18 11:00:39;;;;;;;4.60;2.95;;;19.60;94.00;;;;;;5073067;28;20111;-80
2021/08/18 11:03:08;;;;;;;3.92;2.70;;;19.50;94.00;;;;;;5074340;28;20048;-78
2021/08/18 11:05:36;;;;;;;4.28;2.42;;;19.40;94.10;;;;;;5074364;28;20024;-81
2021/08/18 11:08:16;;;;;;;4.40;2.53;;;19.30;94.20;;;;;;5056377;28;20032;-78
2021/08/18 11:10:54;;;;;;;4.07;2.22;;;19.00;94.00;;;;;;5055675;28;20051;-82
2021/08/18 11:14:04;;;;;;;3.72;2.25;;;18.70;94.00;;;;;;5074027;28;20025;-79
2021/08/18 11:16:31;;;;;;;3.83;2.67;;;18.50;94.30;;;;;;5070897;28;20029;-79
2021/08/18 11:19:11;;;;;;;3.10;2.00;;;18.30;94.70;;;;;;5074096;28;20032;-78
2021/08/18 11:21:38;;;;;;;2.95;1.90;;;18.30;94.80;;;;;;5073945;28;20056;-79
2021/08/18 11:24:06;;;;;;;3.40;1.83;;;18.30;95.10;;;;;;5055731;28;20050;-79
2021/08/18 11:26:34;;;;;;;3.60;2.00;;;18.50;95.10;;;;;;5072727;28;20041;-78
2021/08/18 11:29:08;;;;;;;3.55;2.17;;;18.70;95.10;;;;;;5073873;28;20019;-77
2021/08/18 11:31:36;;;;;;;2.83;1.77;;;19.00;95.00;;;;;;5073634;28;20082;-78
2021/08/18 11:34:02;;;;;;;2.42;1.58;;;19.30;94.90;;;;;;5073782;28;20020;-78
2021/08/18 11:36:33;;;;;;;3.88;2.10;;;19.60;94.70;;;;;;5073626;28;20028;-79
2021/08/18 11:39:00;;;;;;;4.28;2.38;;;19.90;94.50;;;;;;5073681;28;20028;-78
2021/08/18 11:41:42;;;;;;;2.20;1.75;;;20.10;94.30;;;;;;5055161;28;20017;-79
2021/08/18 11:44:08;;;;;;;3.83;2.50;;;20.10;94.10;;;;;;5073427;28;20081;-78
2021/08/18 11:46:34;;;;;;;4.57;2.20;;;20.00;94.20;;;;;;5073472;28;20553;-77
2021/08/18 11:49:08;;;;;;;4.80;2.25;;;19.90;94.20;;;;;;5073614;28;20112;-80
2021/08/18 11:51:34;;;;;;;3.08;1.92;;;19.90;94.20;;;;;;5073686;28;20016;-79
2021/08/18 11:54:00;;;;;;;2.90;1.77;;;19.90;94.30;;;;;;5072956;28;20020;-77
2021/08/18 11:56:28;;;;;;;2.67;1.58;;;19.80;94.20;;;;;;5073297;28;20119;-78
2021/08/18 11:59:02;;;;;;;2.95;1.75;;;19.70;94.30;;;;;;5073343;28;20369;-80
2021/08/18 12:01:29;;;;;;;3.25;2.33;;;19.60;94.30;;;;;;5073300;28;20074;-78
2021/08/18 12:03:56;;;;;;;4.35;2.35;;;19.50;94.30;;;;;;5073258;28;20025;-78
2021/08/18 12:06:33;;;;;;;2.80;1.85;;;19.40;94.40;;;;;;5073227;28;20036;-77
2021/08/18 12:08:59;;;;;;;3.25;2.20;;;19.50;94.40;;;;;;5072822;28;20070;-78
2021/08/18 12:11:37;;;;;;;4.72;2.70;;;19.50;94.30;;;;;;5073343;28;20136;-78
2021/08/18 12:14:13;;;;;;;4.38;2.38;;;19.40;94.30;;;;;;5073387;28;20024;-78
2021/08/18 12:16:39;;;;;;;6.35;3.83;;;19.30;94.20;;;;;;5073158;28;20032;-78
2021/08/18 12:19:17;;;;;;;5.22;3.50;;;19.30;94.40;;;;;;5055314;28;20025;-80
2021/08/18 12:21:43;;;;;;;4.30;2.72;;;19.20;94.50;;;;;;5073055;28;20017;-78
2021/08/18 12:24:11;;;;;;;6.57;3.45;;;19.30;94.70;;;;;;5072351;28;20493;-78
2021/08/18 12:26:40;;;;;;;6.13;2.80;;;19.60;94.70;;;;;;5073064;28;20036;-79
2021/08/18 12:29:08;;;;;;;4.82;2.58;;;19.90;94.60;;;;;;5072953;28;20016;-79
2021/08/18 12:32:01;;;;;;;5.88;3.30;;;20.10;94.30;;;;;;5073100;28;20029;-78
2021/08/18 12:34:47;;;;;;;5.88;3.35;;;20.20;94.30;;;;;;5073014;28;20020;-80
2021/08/18 12:37:14;;;;;;;5.60;3.30;;;20.70;94.30;;;;;;5072934;28;20538;-80
2021/08/18 12:39:45;;;;;;;5.53;3.13;;;20.80;94.10;;;;;;5076066;28;20036;-81
2021/08/18 12:42:24;;;;;;;5.97;3.58;;;20.80;93.80;;;;;;5077014;28;20028;-78
2021/08/18 12:45:08;;;;;;;6.22;3.92;;;20.60;93.80;;;;;;5077005;28;20032;-80
2021/08/18 12:47:37;;;;;;;5.93;3.88;;;20.40;93.90;;;;;;5076783;28;20075;-77
2021/08/18 12:50:06;;;;;;;6.30;3.22;;;20.20;94.20;;;;;;5076859;28;20040;-80
2021/08/18 12:52:31;;;;;;;5.15;3.10;;;20.20;94.20;;;;;;5076304;28;20016;-80